sensor_id;sensor_type;location;lat;lon;timestamp;pressure;altitude;pressure_sealevel;temperature;humidity
8039;BME280;4062;49.844;8.120;2023-05-25T00:00:29;99960.91;;;15.91;59.51
8039;BME280;4062;49.844;8.120;2023-05-25T00:02:30;99958.25;;;15.91;59.50
8039;BME280;4062;49.844;8.120;2023-05-25T00:04:33;99953.84;;;15.90;59.42
8039;BME280;4062;49.844;8.120;2023-05-25T00:06:34;99960.91;;;15.91;59.48
8039;BME280;4062;49.844;8.120;2023-05-25T00:08:41;99951.16;;;15.90;59.52
8039;BME280;4062;49.844;8.120;2023-05-25T00:10:42;99952.91;;;15.91;59.53
8039;BME280;4062;49.844;8.120;2023-05-25T00:12:44;99951.16;;;15.90;59.34
8039;BME280;4062;49.844;8.120;2023-05-25T00:14:45;99951.16;;;15.90;59.48
8039;BME280;4062;49.844;8.120;2023-05-25T00:16:47;99952.97;;;15.89;59.32
8039;BME280;4062;49.844;8.120;2023-05-25T00:18:48;99951.16;;;15.90;59.51
8039;BME280;4062;49.844;8.120;2023-05-25T00:20:50;99948.50;;;15.90;59.46
8039;BME280;4062;49.844;8.120;2023-05-25T00:22:55;99950.31;;;15.89;59.50
8039;BME280;4062;49.844;8.120;2023-05-25T00:24:56;99950.31;;;15.89;59.46
8039;BME280;4062;49.844;8.120;2023-05-25T00:27:02;99945.84;;;15.90;59.52
8039;BME280;4062;49.844;8.120;2023-05-25T00:29:03;99952.06;;;15.90;59.40
8039;BME280;4062;49.844;8.120;2023-05-25T00:31:06;99950.31;;;15.89;59.33
8039;BME280;4062;49.844;8.120;2023-05-25T00:33:07;99947.66;;;15.89;59.38
8039;BME280;4062;49.844;8.120;2023-05-25T00:35:11;99949.41;;;15.90;59.46
8039;BME280;4062;49.844;8.120;2023-05-25T00:37:14;99944.91;;;15.91;59.50
8039;BME280;4062;49.844;8.120;2023-05-25T00:39:19;99944.06;;;15.90;59.41
8039;BME280;4062;49.844;8.120;2023-05-25T00:41:21;99948.50;;;15.90;59.43
8039;BME280;4062;49.844;8.120;2023-05-25T00:43:23;99937.00;;;15.89;59.54
8039;BME280;4062;49.844;8.120;2023-05-25T00:45:25;99944.06;;;15.90;59.43
8039;BME280;4062;49.844;8.120;2023-05-25T00:47:27;99935.19;;;15.90;59.53
8039;BME280;4062;49.844;8.120;2023-05-25T00:49:30;99934.31;;;15.89;59.54
8039;BME280;4062;49.844;8.120;2023-05-25T00:51:33;99933.44;;;15.89;59.38
8039;BME280;4062;49.844;8.120;2023-05-25T00:53:36;99929.84;;;15.90;59.34
8039;BME280;4062;49.844;8.120;2023-05-25T00:55:47;99933.44;;;15.89;59.58
8039;BME280;4062;49.844;8.120;2023-05-25T00:57:53;99932.53;;;15.90;59.45
8039;BME280;4062;49.844;8.120;2023-05-25T00:59:57;99930.78;;;15.89;59.47
8039;BME280;4062;49.844;8.120;2023-05-25T01:02:07;99937.00;;;15.89;59.39
8039;BME280;4062;49.844;8.120;2023-05-25T01:04:11;99929.00;;;15.89;59.58
8039;BME280;4062;49.844;8.120;2023-05-25T01:06:15;99938.72;;;15.90;59.53
8039;BME280;4062;49.844;8.120;2023-05-25T01:08:19;99937.84;;;15.90;59.49
8039;BME280;4062;49.844;8.120;2023-05-25T01:10:24;99937.00;;;15.89;59.35
8039;BME280;4062;49.844;8.120;2023-05-25T01:12:30;99949.44;;;15.89;59.52
8039;BME280;4062;49.844;8.120;2023-05-25T01:14:37;99949.44;;;15.89;59.52
8039;BME280;4062;49.844;8.120;2023-05-25T01:16:41;99945.00;;;15.89;59.39
8039;BME280;4062;49.844;8.120;2023-05-25T01:18:42;99942.31;;;15.89;59.58
8039;BME280;4062;49.844;8.120;2023-05-25T01:23:10;99947.66;;;15.89;59.38
8039;BME280;4062;49.844;8.120;2023-05-25T01:25:21;99947.66;;;15.89;59.48
8039;BME280;4062;49.844;8.120;2023-05-25T01:27:30;99939.66;;;15.89;59.34
8039;BME280;4062;49.844;8.120;2023-05-25T01:29:34;99945.84;;;15.90;59.29
8039;BME280;4062;49.844;8.120;2023-05-25T01:31:46;99937.91;;;15.88;59.59
8039;BME280;4062;49.844;8.120;2023-05-25T01:33:49;99945.00;;;15.89;59.52
8039;BME280;4062;49.844;8.120;2023-05-25T01:35:52;99940.59;;;15.88;59.36
8039;BME280;4062;49.844;8.120;2023-05-25T01:37:53;99943.25;;;15.88;59.43
8039;BME280;4062;49.844;8.120;2023-05-25T01:39:55;99941.44;;;15.89;59.35
8039;BME280;4062;49.844;8.120;2023-05-25T01:41:56;99937.03;;;15.88;59.51
8039;BME280;4062;49.844;8.120;2023-05-25T01:43:58;99942.34;;;15.88;59.37
8039;BME280;4062;49.844;8.120;2023-05-25T01:46:33;99941.44;;;15.89;59.42
8039;BME280;4062;49.844;8.120;2023-05-25T01:49:01;99949.44;;;15.89;59.36
8039;BME280;4062;49.844;8.120;2023-05-25T01:51:16;99953.91;;;15.88;59.55
8039;BME280;4062;49.844;8.120;2023-05-25T01:53:22;99945.91;;;15.88;59.49
8039;BME280;4062;49.844;8.120;2023-05-25T01:55:28;99954.75;;;15.89;59.41
8039;BME280;4062;49.844;8.120;2023-05-25T01:57:35;99953.00;;;15.88;59.38
8039;BME280;4062;49.844;8.120;2023-05-25T01:59:38;99953.91;;;15.88;59.38
8039;BME280;4062;49.844;8.120;2023-05-25T02:01:43;99963.63;;;15.89;59.36
8039;BME280;4062;49.844;8.120;2023-05-25T02:03:48;99961.91;;;15.88;59.38
8039;BME280;4062;49.844;8.120;2023-05-25T02:05:50;99959.22;;;15.88;59.47
8039;BME280;4062;49.844;8.120;2023-05-25T02:07:51;99963.69;;;15.88;59.38
8039;BME280;4062;49.844;8.120;2023-05-25T02:09:53;99959.22;;;15.88;59.26
8039;BME280;4062;49.844;8.120;2023-05-25T02:11:55;99959.22;;;15.88;59.48
8039;BME280;4062;49.844;8.120;2023-05-25T02:13:56;99955.69;;;15.88;59.46
8039;BME280;4062;49.844;8.120;2023-05-25T02:15:58;99959.22;;;15.88;59.47
8039;BME280;4062;49.844;8.120;2023-05-25T02:17:59;99950.34;;;15.88;59.48
8039;BME280;4062;49.844;8.120;2023-05-25T02:20:05;99953.91;;;15.88;59.49
8039;BME280;4062;49.844;8.120;2023-05-25T02:22:17;99951.25;;;15.88;59.41
8039;BME280;4062;49.844;8.120;2023-05-25T02:24:18;99956.56;;;15.88;59.50
8039;BME280;4062;49.844;8.120;2023-05-25T02:26:20;99945.91;;;15.88;59.50
8039;BME280;4062;49.844;8.120;2023-05-25T02:28:22;99956.56;;;15.88;59.46
8039;BME280;4062;49.844;8.120;2023-05-25T02:30:23;99950.34;;;15.88;59.51
8039;BME280;4062;49.844;8.120;2023-05-25T02:32:29;99947.69;;;15.88;59.33
8039;BME280;4062;49.844;8.120;2023-05-25T02:34:31;99951.25;;;15.88;59.31
8039;BME280;4062;49.844;8.120;2023-05-25T02:36:33;99947.69;;;15.88;59.34
8039;BME280;4062;49.844;8.120;2023-05-25T02:38:39;99952.16;;;15.87;59.25
8039;BME280;4062;49.844;8.120;2023-05-25T02:40:40;99950.34;;;15.88;59.43
8039;BME280;4062;49.844;8.120;2023-05-25T02:42:42;99946.84;;;15.87;59.36
8039;BME280;4062;49.844;8.120;2023-05-25T02:44:43;99952.16;;;15.87;59.41
8039;BME280;4062;49.844;8.120;2023-05-25T02:46:49;99946.84;;;15.87;59.50
8039;BME280;4062;49.844;8.120;2023-05-25T02:48:50;99933.50;;;15.87;59.41
8039;BME280;4062;49.844;8.120;2023-05-25T02:50:52;99938.84;;;15.87;59.53
8039;BME280;4062;49.844;8.120;2023-05-25T02:52:54;99945.97;;;15.87;59.66
8039;BME280;4062;49.844;8.120;2023-05-25T02:54:55;99941.50;;;15.87;59.43
8039;BME280;4062;49.844;8.120;2023-05-25T02:57:05;99940.66;;;15.87;59.56
8039;BME280;4062;49.844;8.120;2023-05-25T02:59:07;99940.59;;;15.88;59.47
8039;BME280;4062;49.844;8.120;2023-05-25T03:01:08;99940.66;;;15.87;59.40
8039;BME280;4062;49.844;8.120;2023-05-25T03:03:12;99946.84;;;15.87;59.40
8039;BME280;4062;49.844;8.120;2023-05-25T03:05:20;99940.66;;;15.87;59.42
8039;BME280;4062;49.844;8.120;2023-05-25T03:07:22;99941.50;;;15.87;59.38
8039;BME280;4062;49.844;8.120;2023-05-25T03:09:29;99947.69;;;15.88;59.41
8039;BME280;4062;49.844;8.120;2023-05-25T03:11:31;99948.56;;;15.88;59.35
8039;BME280;4062;49.844;8.120;2023-05-25T03:13:34;99945.97;;;15.87;59.38
8039;BME280;4062;49.844;8.120;2023-05-25T03:15:35;99951.25;;;15.88;59.55
8039;BME280;4062;49.844;8.120;2023-05-25T03:17:39;99947.69;;;15.88;59.55
8039;BME280;4062;49.844;8.120;2023-05-25T03:19:41;99953.91;;;15.88;59.44
8039;BME280;4062;49.844;8.120;2023-05-25T03:21:44;99949.50;;;15.87;59.46
8039;BME280;4062;49.844;8.120;2023-05-25T03:23:45;99955.69;;;15.88;59.46
8039;BME280;4062;49.844;8.120;2023-05-25T03:25:48;99956.56;;;15.88;59.56
8039;BME280;4062;49.844;8.120;2023-05-25T03:27:53;99961.97;;;15.87;59.57
8039;BME280;4062;49.844;8.120;2023-05-25T03:29:55;99960.16;;;15.87;59.51
8039;BME280;4062;49.844;8.120;2023-05-25T03:31:57;99958.34;;;15.88;59.48
8039;BME280;4062;49.844;8.120;2023-05-25T03:34:05;99957.50;;;15.87;59.47
8039;BME280;4062;49.844;8.120;2023-05-25T03:36:11;99953.00;;;15.88;59.58
8039;BME280;4062;49.844;8.120;2023-05-25T03:38:18;99953.09;;;15.86;59.42
8039;BME280;4062;49.844;8.120;2023-05-25T03:40:21;99956.63;;;15.87;59.33
8039;BME280;4062;49.844;8.120;2023-05-25T03:42:23;99957.50;;;15.87;59.36
8039;BME280;4062;49.844;8.120;2023-05-25T03:44:25;99953.97;;;15.87;59.42
8039;BME280;4062;49.844;8.120;2023-05-25T03:46:29;99963.75;;;15.86;59.49
8039;BME280;4062;49.844;8.120;2023-05-25T03:48:32;99959.31;;;15.87;59.46
8039;BME280;4062;49.844;8.120;2023-05-25T03:50:34;99955.69;;;15.88;59.51
8039;BME280;4062;49.844;8.120;2023-05-25T03:52:37;99961.97;;;15.87;59.75
8039;BME280;4062;49.844;8.120;2023-05-25T03:54:38;99968.16;;;15.87;59.47
8039;BME280;4062;49.844;8.120;2023-05-25T03:56:40;99967.28;;;15.87;59.37
8039;BME280;4062;49.844;8.120;2023-05-25T03:58:42;99970.81;;;15.87;59.60
8039;BME280;4062;49.844;8.120;2023-05-25T04:00:43;99975.28;;;15.87;59.38
8039;BME280;4062;49.844;8.120;2023-05-25T04:02:44;99975.28;;;15.87;59.57
8039;BME280;4062;49.844;8.120;2023-05-25T04:04:48;99972.63;;;15.87;59.53
8039;BME280;4062;49.844;8.120;2023-05-25T04:06:58;99973.47;;;15.87;59.43
8039;BME280;4062;49.844;8.120;2023-05-25T04:08:59;99973.47;;;15.87;59.44
8039;BME280;4062;49.844;8.120;2023-05-25T04:11:01;99977.94;;;15.87;59.48
8039;BME280;4062;49.844;8.120;2023-05-25T04:13:03;99980.63;;;15.87;59.55
8039;BME280;4062;49.844;8.120;2023-05-25T04:15:05;99985.06;;;15.86;59.47
8039;BME280;4062;49.844;8.120;2023-05-25T04:17:15;99987.66;;;15.88;59.29
8039;BME280;4062;49.844;8.120;2023-05-25T04:19:19;99982.41;;;15.86;59.49
8039;BME280;4062;49.844;8.120;2023-05-25T04:21:22;99989.47;;;15.87;59.42
8039;BME280;4062;49.844;8.120;2023-05-25T04:23:24;99996.59;;;15.87;59.41
8039;BME280;4062;49.844;8.120;2023-05-25T04:25:27;99997.47;;;15.87;59.58
8039;BME280;4062;49.844;8.120;2023-05-25T04:27:29;100002.78;;;15.87;59.70
8039;BME280;4062;49.844;8.120;2023-05-25T04:29:37;100002.78;;;15.87;59.63
8039;BME280;4062;49.844;8.120;2023-05-25T04:31:56;100008.13;;;15.87;59.36
8039;BME280;4062;49.844;8.120;2023-05-25T04:34:08;100009.03;;;15.86;59.51
8039;BME280;4062;49.844;8.120;2023-05-25T04:36:15;100011.72;;;15.86;59.45
8039;BME280;4062;49.844;8.120;2023-05-25T04:38:16;100014.38;;;15.86;59.50
8039;BME280;4062;49.844;8.120;2023-05-25T04:40:18;100012.59;;;15.87;59.43
8039;BME280;4062;49.844;8.120;2023-05-25T04:42:21;100017.03;;;15.86;59.41
8039;BME280;4062;49.844;8.120;2023-05-25T04:44:26;100017.91;;;15.87;59.48
8039;BME280;4062;49.844;8.120;2023-05-25T04:46:30;100020.59;;;15.87;59.43
8039;BME280;4062;49.844;8.120;2023-05-25T04:48:32;100018.78;;;15.87;59.57
8039;BME280;4062;49.844;8.120;2023-05-25T04:50:34;100012.63;;;15.85;59.55
8039;BME280;4062;49.844;8.120;2023-05-25T04:52:36;100019.69;;;15.86;59.54
8039;BME280;4062;49.844;8.120;2023-05-25T04:54:38;100019.69;;;15.86;59.37
8039;BME280;4062;49.844;8.120;2023-05-25T04:56:42;100020.59;;;15.87;59.56
8039;BME280;4062;49.844;8.120;2023-05-25T04:58:47;100025.91;;;15.87;59.44
8039;BME280;4062;49.844;8.120;2023-05-25T05:00:48;100028.59;;;15.87;59.46
8039;BME280;4062;49.844;8.120;2023-05-25T05:02:52;100036.56;;;15.87;59.54
8039;BME280;4062;49.844;8.120;2023-05-25T05:04:54;100038.34;;;15.86;59.48
8039;BME280;4062;49.844;8.120;2023-05-25T05:06:59;100044.56;;;15.87;59.36
8039;BME280;4062;49.844;8.120;2023-05-25T05:09:03;100041.00;;;15.86;59.56
8039;BME280;4062;49.844;8.120;2023-05-25T05:11:04;100041.91;;;15.87;59.58
8039;BME280;4062;49.844;8.120;2023-05-25T05:13:09;100046.34;;;15.86;59.51
8039;BME280;4062;49.844;8.120;2023-05-25T05:15:14;100049.91;;;15.87;59.48
8039;BME280;4062;49.844;8.120;2023-05-25T05:17:18;100045.44;;;15.87;59.42
8039;BME280;4062;49.844;8.120;2023-05-25T05:19:20;100048.09;;;15.87;59.48
8039;BME280;4062;49.844;8.120;2023-05-25T05:21:26;100055.22;;;15.87;59.51
8039;BME280;4062;49.844;8.120;2023-05-25T05:23:28;100049.91;;;15.87;59.54
8039;BME280;4062;49.844;8.120;2023-05-25T05:25:30;100059.66;;;15.86;59.52
8039;BME280;4062;49.844;8.120;2023-05-25T05:27:32;100052.56;;;15.87;59.36
8039;BME280;4062;49.844;8.120;2023-05-25T05:29:37;100054.34;;;15.86;59.55
8039;BME280;4062;49.844;8.120;2023-05-25T05:31:39;100063.22;;;15.87;59.56
8039;BME280;4062;49.844;8.120;2023-05-25T05:33:40;100061.41;;;15.87;59.53
8039;BME280;4062;49.844;8.120;2023-05-25T05:35:41;100065.88;;;15.87;59.51
8039;BME280;4062;49.844;8.120;2023-05-25T05:37:50;100057.91;;;15.87;59.57
8039;BME280;4062;49.844;8.120;2023-05-25T05:39:51;100054.28;;;15.88;59.41
8039;BME280;4062;49.844;8.120;2023-05-25T05:41:53;100061.41;;;15.87;59.37
8039;BME280;4062;49.844;8.120;2023-05-25T05:43:55;100056.16;;;15.86;59.49
8039;BME280;4062;49.844;8.120;2023-05-25T05:45:56;100058.75;;;15.87;59.58
8039;BME280;4062;49.844;8.120;2023-05-25T05:47:57;100065.88;;;15.87;59.51
8039;BME280;4062;49.844;8.120;2023-05-25T05:49:59;100067.66;;;15.86;59.43
8039;BME280;4062;49.844;8.120;2023-05-25T05:52:02;100060.56;;;15.87;59.37
8039;BME280;4062;49.844;8.120;2023-05-25T05:54:04;100063.22;;;15.87;59.51
8039;BME280;4062;49.844;8.120;2023-05-25T05:56:19;100078.25;;;15.88;59.43
8039;BME280;4062;49.844;8.120;2023-05-25T05:58:23;100077.41;;;15.87;59.51
8039;BME280;4062;49.844;8.120;2023-05-25T06:00:26;100079.22;;;15.87;59.54
8039;BME280;4062;49.844;8.120;2023-05-25T06:02:28;100068.56;;;15.87;59.41
8039;BME280;4062;49.844;8.120;2023-05-25T06:04:29;100077.41;;;15.87;59.41
8039;BME280;4062;49.844;8.120;2023-05-25T06:06:32;100076.53;;;15.87;59.37
8039;BME280;4062;49.844;8.120;2023-05-25T06:08:37;100076.53;;;15.87;59.47
8039;BME280;4062;49.844;8.120;2023-05-25T06:10:42;100083.66;;;15.86;59.43
8039;BME280;4062;49.844;8.120;2023-05-25T06:12:43;100080.91;;;15.88;59.40
8039;BME280;4062;49.844;8.120;2023-05-25T06:14:44;100077.41;;;15.87;59.41
8039;BME280;4062;49.844;8.120;2023-05-25T06:16:49;100079.22;;;15.87;59.36
8039;BME280;4062;49.844;8.120;2023-05-25T06:18:51;100079.22;;;15.87;59.46
8039;BME280;4062;49.844;8.120;2023-05-25T06:20:52;100080.91;;;15.88;59.55
8039;BME280;4062;49.844;8.120;2023-05-25T06:22:54;100080.06;;;15.87;59.49
8039;BME280;4062;49.844;8.120;2023-05-25T06:24:55;100077.41;;;15.87;59.41
8039;BME280;4062;49.844;8.120;2023-05-25T06:26:57;100081.81;;;15.88;59.40
8039;BME280;4062;49.844;8.120;2023-05-25T06:28:58;100080.88;;;15.89;59.34
8039;BME280;4062;49.844;8.120;2023-05-25T06:30:59;100085.34;;;15.89;59.41
8039;BME280;4062;49.844;8.120;2023-05-25T06:33:00;100077.34;;;15.89;59.52
8039;BME280;4062;49.844;8.120;2023-05-25T06:35:03;100080.88;;;15.89;59.52
8039;BME280;4062;49.844;8.120;2023-05-25T06:37:05;100080.88;;;15.89;59.38
8039;BME280;4062;49.844;8.120;2023-05-25T06:39:07;100087.97;;;15.90;59.23
8039;BME280;4062;49.844;8.120;2023-05-25T06:41:08;100087.91;;;15.92;59.40
8039;BME280;4062;49.844;8.120;2023-05-25T06:43:12;100086.09;;;15.92;59.34
8039;BME280;4062;49.844;8.120;2023-05-25T06:45:27;100089.56;;;15.94;59.28
8039;BME280;4062;49.844;8.120;2023-05-25T06:47:28;100090.47;;;15.95;59.21
8039;BME280;4062;49.844;8.120;2023-05-25T06:49:29;100091.31;;;15.96;59.32
8039;BME280;4062;49.844;8.120;2023-05-25T06:51:31;100091.25;;;15.97;59.31
8039;BME280;4062;49.844;8.120;2023-05-25T06:53:33;100091.22;;;15.99;59.20
8039;BME280;4062;49.844;8.120;2023-05-25T06:55:34;100096.50;;;16.00;59.08
8039;BME280;4062;49.844;8.120;2023-05-25T06:57:35;100084.91;;;16.01;59.23
8039;BME280;4062;49.844;8.120;2023-05-25T06:59:37;100093.75;;;16.02;59.12
8039;BME280;4062;49.844;8.120;2023-05-25T07:01:38;100095.50;;;16.03;59.05
8039;BME280;4062;49.844;8.120;2023-05-25T07:03:39;100091.06;;;16.03;59.03
8039;BME280;4062;49.844;8.120;2023-05-25T07:05:40;100097.25;;;16.04;59.03
8039;BME280;4062;49.844;8.120;2023-05-25T07:07:42;100094.59;;;16.04;59.09
8039;BME280;4062;49.844;8.120;2023-05-25T07:09:43;100105.19;;;16.05;59.05
8039;BME280;4062;49.844;8.120;2023-05-25T07:11:44;100095.41;;;16.06;58.96
8039;BME280;4062;49.844;8.120;2023-05-25T07:13:46;100091.81;;;16.07;59.12
8039;BME280;4062;49.844;8.120;2023-05-25T07:15:48;100090.00;;;16.07;58.90
8039;BME280;4062;49.844;8.120;2023-05-25T07:17:49;100091.75;;;16.08;59.07
8039;BME280;4062;49.844;8.120;2023-05-25T07:19:51;100090.91;;;16.08;58.93
8039;BME280;4062;49.844;8.120;2023-05-25T07:21:52;100098.81;;;16.09;58.97
8039;BME280;4062;49.844;8.120;2023-05-25T07:23:53;100089.03;;;16.10;58.99
8039;BME280;4062;49.844;8.120;2023-05-25T07:25:54;100100.56;;;16.10;58.88
8039;BME280;4062;49.844;8.120;2023-05-25T07:27:56;100096.09;;;16.11;58.98
8039;BME280;4062;49.844;8.120;2023-05-25T07:29:57;100090.75;;;16.11;58.85
8039;BME280;4062;49.844;8.120;2023-05-25T07:31:59;100092.56;;;16.10;58.96
8039;BME280;4062;49.844;8.120;2023-05-25T07:34:00;100091.69;;;16.10;59.05
8039;BME280;4062;49.844;8.120;2023-05-25T07:36:02;100094.34;;;16.10;59.00
8039;BME280;4062;49.844;8.120;2023-05-25T07:38:06;100083.75;;;16.08;58.89
8039;BME280;4062;49.844;8.120;2023-05-25T07:40:10;100084.66;;;16.09;58.92
8039;BME280;4062;49.844;8.120;2023-05-25T07:42:12;100088.22;;;16.08;59.09
8039;BME280;4062;49.844;8.120;2023-05-25T07:44:13;100082.84;;;16.09;58.91
8039;BME280;4062;49.844;8.120;2023-05-25T07:46:14;100091.69;;;16.10;58.91
8039;BME280;4062;49.844;8.120;2023-05-25T07:48:20;100089.00;;;16.12;58.78
8039;BME280;4062;49.844;8.120;2023-05-25T07:50:21;100084.50;;;16.12;58.84
8039;BME280;4062;49.844;8.120;2023-05-25T07:52:26;100086.25;;;16.13;58.58
8039;BME280;4062;49.844;8.120;2023-05-25T07:54:27;100092.47;;;16.14;58.69
8039;BME280;4062;49.844;8.120;2023-05-25T07:56:29;100090.59;;;16.16;58.60
8039;BME280;4062;49.844;8.120;2023-05-25T07:58:30;100095.06;;;16.15;58.70
8039;BME280;4062;49.844;8.120;2023-05-25T08:00:39;100100.41;;;16.15;58.64
8039;BME280;4062;49.844;8.120;2023-05-25T08:02:41;100099.47;;;16.16;58.79
8039;BME280;4062;49.844;8.120;2023-05-25T08:04:42;100094.16;;;16.16;58.80
8039;BME280;4062;49.844;8.120;2023-05-25T08:06:44;100089.69;;;16.17;58.78
8039;BME280;4062;49.844;8.120;2023-05-25T08:08:46;100091.50;;;16.16;58.79
8039;BME280;4062;49.844;8.120;2023-05-25T08:10:47;100088.81;;;16.16;58.71
8039;BME280;4062;49.844;8.120;2023-05-25T08:12:49;100095.94;;;16.16;58.84
8039;BME280;4062;49.844;8.120;2023-05-25T08:14:50;100087.06;;;16.15;58.75
8039;BME280;4062;49.844;8.120;2023-05-25T08:16:52;100100.41;;;16.15;58.69
8039;BME280;4062;49.844;8.120;2023-05-25T08:18:53;100090.66;;;16.14;58.84
8039;BME280;4062;49.844;8.120;2023-05-25T08:20:55;100088.00;;;16.14;58.94
8039;BME280;4062;49.844;8.120;2023-05-25T08:22:57;100085.34;;;16.14;58.76
8039;BME280;4062;49.844;8.120;2023-05-25T08:24:59;100090.66;;;16.14;58.98
8039;BME280;4062;49.844;8.120;2023-05-25T08:27:01;100093.34;;;16.14;58.81
8039;BME280;4062;49.844;8.120;2023-05-25T08:29:03;100086.25;;;16.13;58.84
8039;BME280;4062;49.844;8.120;2023-05-25T08:31:05;100088.00;;;16.14;58.95
8039;BME280;4062;49.844;8.120;2023-05-25T08:33:06;100082.72;;;16.13;59.04
8039;BME280;4062;49.844;8.120;2023-05-25T08:35:08;100082.72;;;16.13;58.95
8039;BME280;4062;49.844;8.120;2023-05-25T08:37:13;100089.84;;;16.12;58.97
8039;BME280;4062;49.844;8.120;2023-05-25T08:39:17;100094.31;;;16.12;58.83
8039;BME280;4062;49.844;8.120;2023-05-25T08:41:19;100097.00;;;16.12;58.89
8039;BME280;4062;49.844;8.120;2023-05-25T08:43:23;100090.75;;;16.11;59.01
8039;BME280;4062;49.844;8.120;2023-05-25T08:45:25;100091.69;;;16.10;58.84
8039;BME280;4062;49.844;8.120;2023-05-25T08:47:31;100093.44;;;16.11;59.00
8039;BME280;4062;49.844;8.120;2023-05-25T08:49:36;100089.91;;;16.10;59.00
8039;BME280;4062;49.844;8.120;2023-05-25T08:51:48;100090.75;;;16.11;59.01
8039;BME280;4062;49.844;8.120;2023-05-25T08:53:51;100100.56;;;16.10;58.91
8039;BME280;4062;49.844;8.120;2023-05-25T08:55:54;100104.97;;;16.12;58.92
8039;BME280;4062;49.844;8.120;2023-05-25T08:58:07;100106.72;;;16.13;58.98
8039;BME280;4062;49.844;8.120;2023-05-25T09:00:14;100100.56;;;16.10;58.92
8039;BME280;4062;49.844;8.120;2023-05-25T09:02:49;100101.41;;;16.13;58.84
8039;BME280;4062;49.844;8.120;2023-05-25T09:04:52;100110.25;;;16.13;58.99
8039;BME280;4062;49.844;8.120;2023-05-25T09:06:54;100105.84;;;16.12;58.89
8039;BME280;4062;49.844;8.120;2023-05-25T09:08:56;100107.59;;;16.13;58.92
8039;BME280;4062;49.844;8.120;2023-05-25T09:10:58;100105.84;;;16.12;58.98
8039;BME280;4062;49.844;8.120;2023-05-25T09:13:01;100102.25;;;16.13;58.82
8039;BME280;4062;49.844;8.120;2023-05-25T09:15:03;100105.81;;;16.14;58.76
8039;BME280;4062;49.844;8.120;2023-05-25T09:17:04;100112.00;;;16.14;58.84
8039;BME280;4062;49.844;8.120;2023-05-25T09:19:06;100106.66;;;16.14;58.97
8039;BME280;4062;49.844;8.120;2023-05-25T09:21:07;100110.19;;;16.15;58.72
8039;BME280;4062;49.844;8.120;2023-05-25T09:23:09;100113.81;;;16.14;58.78
8039;BME280;4062;49.844;8.120;2023-05-25T09:25:10;100103.13;;;16.14;58.85
8039;BME280;4062;49.844;8.120;2023-05-25T09:27:17;100109.31;;;16.14;58.78
8039;BME280;4062;49.844;8.120;2023-05-25T09:29:19;100115.56;;;16.13;59.01
8039;BME280;4062;49.844;8.120;2023-05-25T09:31:22;100115.56;;;16.13;59.01
8039;BME280;4062;49.844;8.120;2023-05-25T09:33:25;100109.41;;;16.13;58.89
8039;BME280;4062;49.844;8.120;2023-05-25T09:35:29;100116.50;;;16.12;58.99
8039;BME280;4062;49.844;8.120;2023-05-25T09:37:31;100111.16;;;16.12;58.89
8039;BME280;4062;49.844;8.120;2023-05-25T09:39:32;100104.97;;;16.12;59.02
8039;BME280;4062;49.844;8.120;2023-05-25T09:41:34;100116.50;;;16.12;58.86
8039;BME280;4062;49.844;8.120;2023-05-25T09:43:38;100115.66;;;16.12;58.98
8039;BME280;4062;49.844;8.120;2023-05-25T09:45:39;100113.84;;;16.12;58.85
8039;BME280;4062;49.844;8.120;2023-05-25T09:47:41;100111.16;;;16.12;58.97
8039;BME280;4062;49.844;8.120;2023-05-25T09:49:43;100115.56;;;16.13;58.98
8039;BME280;4062;49.844;8.120;2023-05-25T09:51:44;100113.84;;;16.12;58.84
8039;BME280;4062;49.844;8.120;2023-05-25T09:53:46;100105.84;;;16.12;58.97
8039;BME280;4062;49.844;8.120;2023-05-25T09:55:48;100114.72;;;16.13;58.90
8039;BME280;4062;49.844;8.120;2023-05-25T09:57:54;100113.81;;;16.14;58.87
8039;BME280;4062;49.844;8.120;2023-05-25T09:59:56;100111.16;;;16.12;58.89
8039;BME280;4062;49.844;8.120;2023-05-25T10:01:57;100112.91;;;16.13;58.75
8039;BME280;4062;49.844;8.120;2023-05-25T10:04:00;100119.13;;;16.14;58.91
8039;BME280;4062;49.844;8.120;2023-05-25T10:06:02;100112.06;;;16.13;58.90
8039;BME280;4062;49.844;8.120;2023-05-25T10:08:04;100112.06;;;16.13;58.92
8039;BME280;4062;49.844;8.120;2023-05-25T10:10:06;100112.91;;;16.13;58.91
8039;BME280;4062;49.844;8.120;2023-05-25T10:12:08;100117.38;;;16.13;58.86
8039;BME280;4062;49.844;8.120;2023-05-25T10:14:13;100113.84;;;16.12;58.95
8039;BME280;4062;49.844;8.120;2023-05-25T10:16:16;100117.38;;;16.13;58.93
8039;BME280;4062;49.844;8.120;2023-05-25T10:18:23;100120.06;;;16.13;58.93
8039;BME280;4062;49.844;8.120;2023-05-25T10:20:24;100112.06;;;16.13;58.99
8039;BME280;4062;49.844;8.120;2023-05-25T10:22:39;100120.06;;;16.13;58.99
8039;BME280;4062;49.844;8.120;2023-05-25T10:24:55;100115.56;;;16.13;58.92
8039;BME280;4062;49.844;8.120;2023-05-25T10:27:02;100110.25;;;16.13;58.92
8039;BME280;4062;49.844;8.120;2023-05-25T10:29:06;100114.72;;;16.13;58.97
8039;BME280;4062;49.844;8.120;2023-05-25T10:31:09;100116.47;;;16.14;58.96
8039;BME280;4062;49.844;8.120;2023-05-25T10:33:10;100111.16;;;16.12;58.98
8039;BME280;4062;49.844;8.120;2023-05-25T10:35:13;100111.16;;;16.12;58.91
8039;BME280;4062;49.844;8.120;2023-05-25T10:37:16;100099.59;;;16.13;58.86
8039;BME280;4062;49.844;8.120;2023-05-25T10:39:18;100104.91;;;16.13;58.96
8039;BME280;4062;49.844;8.120;2023-05-25T10:41:20;100105.84;;;16.12;58.99
8039;BME280;4062;49.844;8.120;2023-05-25T10:43:22;100098.72;;;16.13;58.92
8039;BME280;4062;49.844;8.120;2023-05-25T10:45:23;100091.59;;;16.13;58.78
8039;BME280;4062;49.844;8.120;2023-05-25T10:47:25;100100.47;;;16.14;58.98
8039;BME280;4062;49.844;8.120;2023-05-25T10:49:31;100096.91;;;16.13;59.01
8039;BME280;4062;49.844;8.120;2023-05-25T10:51:37;100097.84;;;16.12;58.85
8039;BME280;4062;49.844;8.120;2023-05-25T10:53:43;100088.91;;;16.13;58.96
8039;BME280;4062;49.844;8.120;2023-05-25T10:58:10;100096.91;;;16.13;58.97
8039;BME280;4062;49.844;8.120;2023-05-25T11:00:13;100088.06;;;16.13;58.97
8039;BME280;4062;49.844;8.120;2023-05-25T11:02:15;100082.72;;;16.13;59.03
8039;BME280;4062;49.844;8.120;2023-05-25T11:04:17;100088.06;;;16.13;58.99
8039;BME280;4062;49.844;8.120;2023-05-25T11:07:02;100082.78;;;16.11;58.99
8039;BME280;4062;49.844;8.120;2023-05-25T11:08:55;100080.06;;;16.13;58.86
8039;BME280;4062;49.844;8.120;2023-05-25T11:10:58;100067.66;;;16.12;58.95